sensor_id;sensor_type;location;lat;lon;timestamp;P1;durP1;ratioP1;P2;durP2;ratioP2
19221;SDS011;9745;50.828;4.378;2023-03-01T00:00:49;10.23;;;6.93;;
19221;SDS011;9745;50.828;4.378;2023-03-01T00:03:15;12.00;;;6.63;;
19221;SDS011;9745;50.828;4.378;2023-03-01T00:05:45;12.30;;;6.77;;
19221;SDS011;9745;50.828;4.378;2023-03-01T00:08:11;14.60;;;7.57;;
19221;SDS011;9745;50.828;4.378;2023-03-01T00:10:37;10.93;;;6.73;;
19221;SDS011;9745;50.828;4.378;2023-03-01T00:13:03;10.90;;;6.67;;
19221;SDS011;9745;50.828;4.378;2023-03-01T00:15:30;13.50;;;6.60;;
19221;SDS011;9745;50.828;4.378;2023-03-01T00:17:56;12.57;;;7.07;;
19221;SDS011;9745;50.828;4.378;2023-03-01T00:20:22;16.53;;;7.33;;
19221;SDS011;9745;50.828;4.378;2023-03-01T00:22:48;11.90;;;7.33;;
19221;SDS011;9745;50.828;4.378;2023-03-01T00:25:14;10.10;;;7.10;;
19221;SDS011;9745;50.828;4.378;2023-03-01T00:27:40;10.00;;;7.00;;
19221;SDS011;9745;50.828;4.378;2023-03-01T00:30:06;13.13;;;7.07;;
19221;SDS011;9745;50.828;4.378;2023-03-01T00:32:33;12.10;;;7.03;;
19221;SDS011;9745;50.828;4.378;2023-03-01T00:34:59;13.13;;;6.83;;
19221;SDS011;9745;50.828;4.378;2023-03-01T00:37:25;10.23;;;6.50;;
19221;SDS011;9745;50.828;4.378;2023-03-01T00:39:51;12.30;;;6.93;;
19221;SDS011;9745;50.828;4.378;2023-03-01T00:42:17;9.73;;;6.27;;
19221;SDS011;9745;50.828;4.378;2023-03-01T00:44:43;7.47;;;6.10;;
19221;SDS011;9745;50.828;4.378;2023-03-01T00:47:09;12.37;;;6.83;;
19221;SDS011;9745;50.828;4.378;2023-03-01T00:49:35;9.57;;;7.03;;
19221;SDS011;9745;50.828;4.378;2023-03-01T00:52:01;10.50;;;6.50;;
19221;SDS011;9745;50.828;4.378;2023-03-01T00:54:27;8.60;;;6.80;;
19221;SDS011;9745;50.828;4.378;2023-03-01T00:56:53;12.87;;;7.20;;
19221;SDS011;9745;50.828;4.378;2023-03-01T00:59:19;10.80;;;7.10;;
19221;SDS011;9745;50.828;4.378;2023-03-01T01:01:45;10.13;;;7.03;;
19221;SDS011;9745;50.828;4.378;2023-03-01T01:04:12;10.53;;;6.87;;
19221;SDS011;9745;50.828;4.378;2023-03-01T01:06:42;9.27;;;6.50;;
19221;SDS011;9745;50.828;4.378;2023-03-01T01:09:09;13.03;;;7.13;;
19221;SDS011;9745;50.828;4.378;2023-03-01T01:11:42;11.27;;;6.93;;
19221;SDS011;9745;50.828;4.378;2023-03-01T01:14:08;10.40;;;6.70;;
19221;SDS011;9745;50.828;4.378;2023-03-01T01:16:34;10.13;;;6.67;;
19221;SDS011;9745;50.828;4.378;2023-03-01T01:19:00;10.17;;;6.77;;
19221;SDS011;9745;50.828;4.378;2023-03-01T01:21:26;9.23;;;6.60;;
19221;SDS011;9745;50.828;4.378;2023-03-01T01:23:52;8.33;;;6.07;;
19221;SDS011;9745;50.828;4.378;2023-03-01T01:26:21;9.57;;;6.47;;
19221;SDS011;9745;50.828;4.378;2023-03-01T01:28:48;9.57;;;6.57;;
19221;SDS011;9745;50.828;4.378;2023-03-01T01:31:14;9.83;;;6.50;;
19221;SDS011;9745;50.828;4.378;2023-03-01T01:33:40;9.63;;;6.27;;
19221;SDS011;9745;50.828;4.378;2023-03-01T01:36:06;10.20;;;7.00;;
19221;SDS011;9745;50.828;4.378;2023-03-01T01:38:32;8.13;;;6.23;;
19221;SDS011;9745;50.828;4.378;2023-03-01T01:40:59;8.93;;;6.17;;
19221;SDS011;9745;50.828;4.378;2023-03-01T01:43:26;10.37;;;6.93;;
19221;SDS011;9745;50.828;4.378;2023-03-01T01:45:57;9.87;;;6.60;;
19221;SDS011;9745;50.828;4.378;2023-03-01T01:48:24;9.87;;;6.67;;
19221;SDS011;9745;50.828;4.378;2023-03-01T01:51:05;10.53;;;5.90;;
19221;SDS011;9745;50.828;4.378;2023-03-01T01:53:32;10.83;;;6.73;;
19221;SDS011;9745;50.828;4.378;2023-03-01T01:55:58;9.57;;;6.40;;
19221;SDS011;9745;50.828;4.378;2023-03-01T01:58:25;9.67;;;6.37;;
19221;SDS011;9745;50.828;4.378;2023-03-01T02:00:52;9.70;;;6.47;;
19221;SDS011;9745;50.828;4.378;2023-03-01T02:03:20;11.20;;;6.60;;
19221;SDS011;9745;50.828;4.378;2023-03-01T02:06:03;12.43;;;6.77;;
19221;SDS011;9745;50.828;4.378;2023-03-01T02:08:30;10.83;;;6.47;;
19221;SDS011;9745;50.828;4.378;2023-03-01T02:10:57;10.03;;;6.57;;
19221;SDS011;9745;50.828;4.378;2023-03-01T02:13:24;11.10;;;6.33;;
19221;SDS011;9745;50.828;4.378;2023-03-01T02:15:50;10.97;;;7.20;;
19221;SDS011;9745;50.828;4.378;2023-03-01T02:18:25;13.50;;;7.20;;
19221;SDS011;9745;50.828;4.378;2023-03-01T02:23:28;10.80;;;6.97;;
19221;SDS011;9745;50.828;4.378;2023-03-01T02:25:58;10.77;;;6.90;;
19221;SDS011;9745;50.828;4.378;2023-03-01T02:28:33;11.27;;;6.60;;
19221;SDS011;9745;50.828;4.378;2023-03-01T02:30:59;9.20;;;6.63;;
19221;SDS011;9745;50.828;4.378;2023-03-01T02:33:45;10.30;;;6.93;;
19221;SDS011;9745;50.828;4.378;2023-03-01T02:36:15;10.33;;;6.13;;
19221;SDS011;9745;50.828;4.378;2023-03-01T02:38:42;11.63;;;6.87;;
19221;SDS011;9745;50.828;4.378;2023-03-01T02:41:08;14.63;;;8.03;;
19221;SDS011;9745;50.828;4.378;2023-03-01T02:43:36;8.20;;;6.50;;
19221;SDS011;9745;50.828;4.378;2023-03-01T02:46:05;14.23;;;7.47;;
19221;SDS011;9745;50.828;4.378;2023-03-01T02:48:47;10.03;;;7.33;;
19221;SDS011;9745;50.828;4.378;2023-03-01T02:56:15;12.20;;;6.50;;
19221;SDS011;9745;50.828;4.378;2023-03-01T02:58:41;10.83;;;6.73;;
19221;SDS011;9745;50.828;4.378;2023-03-01T03:01:10;12.33;;;6.83;;
19221;SDS011;9745;50.828;4.378;2023-03-01T03:03:36;9.63;;;6.63;;
19221;SDS011;9745;50.828;4.378;2023-03-01T03:06:02;11.87;;;7.03;;
19221;SDS011;9745;50.828;4.378;2023-03-01T03:08:28;10.43;;;6.30;;
19221;SDS011;9745;50.828;4.378;2023-03-01T03:10:54;11.80;;;6.77;;
19221;SDS011;9745;50.828;4.378;2023-03-01T03:13:19;9.93;;;6.77;;
19221;SDS011;9745;50.828;4.378;2023-03-01T03:15:47;12.50;;;6.90;;
19221;SDS011;9745;50.828;4.378;2023-03-01T03:18:14;14.10;;;7.13;;
19221;SDS011;9745;50.828;4.378;2023-03-01T03:20:41;8.90;;;6.33;;
19221;SDS011;9745;50.828;4.378;2023-03-01T03:23:07;9.87;;;6.97;;
19221;SDS011;9745;50.828;4.378;2023-03-01T03:25:33;11.10;;;7.17;;
19221;SDS011;9745;50.828;4.378;2023-03-01T03:28:02;8.97;;;6.37;;
19221;SDS011;9745;50.828;4.378;2023-03-01T03:30:34;12.13;;;7.10;;
19221;SDS011;9745;50.828;4.378;2023-03-01T03:33:00;13.20;;;7.43;;
19221;SDS011;9745;50.828;4.378;2023-03-01T03:35:48;10.80;;;7.00;;
19221;SDS011;9745;50.828;4.378;2023-03-01T03:38:13;13.20;;;7.27;;
19221;SDS011;9745;50.828;4.378;2023-03-01T03:40:45;9.37;;;6.87;;
19221;SDS011;9745;50.828;4.378;2023-03-01T03:43:15;9.63;;;7.13;;
19221;SDS011;9745;50.828;4.378;2023-03-01T03:45:43;13.97;;;7.63;;
19221;SDS011;9745;50.828;4.378;2023-03-01T03:48:09;10.30;;;6.10;;
19221;SDS011;9745;50.828;4.378;2023-03-01T03:50:36;11.57;;;7.20;;
19221;SDS011;9745;50.828;4.378;2023-03-01T03:53:04;11.27;;;7.13;;
19221;SDS011;9745;50.828;4.378;2023-03-01T03:55:30;10.40;;;6.90;;
19221;SDS011;9745;50.828;4.378;2023-03-01T03:57:58;14.27;;;7.20;;
19221;SDS011;9745;50.828;4.378;2023-03-01T04:00:27;12.10;;;7.00;;
19221;SDS011;9745;50.828;4.378;2023-03-01T04:02:53;10.27;;;7.10;;
19221;SDS011;9745;50.828;4.378;2023-03-01T04:05:21;10.10;;;6.83;;
19221;SDS011;9745;50.828;4.378;2023-03-01T04:07:47;9.93;;;6.87;;
19221;SDS011;9745;50.828;4.378;2023-03-01T04:10:16;9.67;;;6.63;;
19221;SDS011;9745;50.828;4.378;2023-03-01T04:12:43;8.90;;;6.90;;
19221;SDS011;9745;50.828;4.378;2023-03-01T04:15:09;16.23;;;7.93;;
19221;SDS011;9745;50.828;4.378;2023-03-01T04:17:39;14.50;;;7.50;;
19221;SDS011;9745;50.828;4.378;2023-03-01T04:20:06;11.43;;;7.70;;
19221;SDS011;9745;50.828;4.378;2023-03-01T04:22:32;10.33;;;7.10;;
19221;SDS011;9745;50.828;4.378;2023-03-01T04:24:58;10.73;;;7.17;;
19221;SDS011;9745;50.828;4.378;2023-03-01T04:27:31;11.00;;;7.10;;
19221;SDS011;9745;50.828;4.378;2023-03-01T04:29:57;15.70;;;7.27;;
19221;SDS011;9745;50.828;4.378;2023-03-01T04:32:23;10.43;;;6.97;;
19221;SDS011;9745;50.828;4.378;2023-03-01T04:34:49;15.13;;;7.37;;
19221;SDS011;9745;50.828;4.378;2023-03-01T04:37:15;15.10;;;7.63;;
19221;SDS011;9745;50.828;4.378;2023-03-01T04:39:41;10.67;;;7.30;;
19221;SDS011;9745;50.828;4.378;2023-03-01T04:42:16;11.57;;;7.47;;
19221;SDS011;9745;50.828;4.378;2023-03-01T04:44:43;11.80;;;7.73;;
19221;SDS011;9745;50.828;4.378;2023-03-01T04:47:09;12.73;;;8.00;;
19221;SDS011;9745;50.828;4.378;2023-03-01T04:49:35;10.40;;;7.13;;
19221;SDS011;9745;50.828;4.378;2023-03-01T04:52:01;10.83;;;7.43;;
19221;SDS011;9745;50.828;4.378;2023-03-01T04:54:32;12.77;;;7.40;;
19221;SDS011;9745;50.828;4.378;2023-03-01T04:56:59;13.73;;;7.77;;
19221;SDS011;9745;50.828;4.378;2023-03-01T04:59:25;11.70;;;7.90;;
19221;SDS011;9745;50.828;4.378;2023-03-01T05:01:51;12.53;;;7.67;;
19221;SDS011;9745;50.828;4.378;2023-03-01T05:04:18;12.93;;;8.13;;
19221;SDS011;9745;50.828;4.378;2023-03-01T05:06:44;14.40;;;7.50;;
19221;SDS011;9745;50.828;4.378;2023-03-01T05:09:10;13.13;;;7.30;;
19221;SDS011;9745;50.828;4.378;2023-03-01T05:11:36;11.83;;;7.37;;
19221;SDS011;9745;50.828;4.378;2023-03-01T05:14:02;12.57;;;8.13;;
19221;SDS011;9745;50.828;4.378;2023-03-01T05:16:29;9.97;;;7.03;;
19221;SDS011;9745;50.828;4.378;2023-03-01T05:18:56;15.03;;;7.77;;
19221;SDS011;9745;50.828;4.378;2023-03-01T05:21:22;12.40;;;7.27;;
19221;SDS011;9745;50.828;4.378;2023-03-01T05:23:48;9.73;;;7.47;;
19221;SDS011;9745;50.828;4.378;2023-03-01T05:26:14;11.37;;;7.07;;
19221;SDS011;9745;50.828;4.378;2023-03-01T05:28:40;15.90;;;7.47;;
19221;SDS011;9745;50.828;4.378;2023-03-01T05:31:07;12.53;;;8.03;;
19221;SDS011;9745;50.828;4.378;2023-03-01T05:33:35;12.40;;;7.27;;
19221;SDS011;9745;50.828;4.378;2023-03-01T05:36:02;9.93;;;7.10;;
19221;SDS011;9745;50.828;4.378;2023-03-01T05:38:28;12.17;;;7.07;;
19221;SDS011;9745;50.828;4.378;2023-03-01T05:40:54;11.50;;;7.80;;
19221;SDS011;9745;50.828;4.378;2023-03-01T05:43:20;10.97;;;6.77;;
19221;SDS011;9745;50.828;4.378;2023-03-01T05:45:46;12.87;;;7.57;;
19221;SDS011;9745;50.828;4.378;2023-03-01T05:48:12;12.30;;;7.70;;
19221;SDS011;9745;50.828;4.378;2023-03-01T05:50:43;11.60;;;7.10;;
19221;SDS011;9745;50.828;4.378;2023-03-01T05:53:14;12.07;;;7.57;;
19221;SDS011;9745;50.828;4.378;2023-03-01T05:55:41;13.23;;;7.60;;
19221;SDS011;9745;50.828;4.378;2023-03-01T05:58:09;15.20;;;8.17;;
19221;SDS011;9745;50.828;4.378;2023-03-01T06:00:35;14.67;;;8.07;;
19221;SDS011;9745;50.828;4.378;2023-03-01T06:03:01;13.40;;;8.10;;
19221;SDS011;9745;50.828;4.378;2023-03-01T06:05:28;9.57;;;6.87;;
19221;SDS011;9745;50.828;4.378;2023-03-01T06:07:54;13.10;;;7.47;;
19221;SDS011;9745;50.828;4.378;2023-03-01T06:10:20;16.80;;;8.50;;
19221;SDS011;9745;50.828;4.378;2023-03-01T06:12:47;11.23;;;8.07;;
19221;SDS011;9745;50.828;4.378;2023-03-01T06:15:14;14.30;;;8.43;;
19221;SDS011;9745;50.828;4.378;2023-03-01T06:17:41;11.57;;;7.67;;
19221;SDS011;9745;50.828;4.378;2023-03-01T06:20:08;13.40;;;7.80;;
19221;SDS011;9745;50.828;4.378;2023-03-01T06:22:35;18.50;;;7.90;;
19221;SDS011;9745;50.828;4.378;2023-03-01T06:25:09;12.93;;;8.23;;
19221;SDS011;9745;50.828;4.378;2023-03-01T06:27:35;12.63;;;7.23;;
19221;SDS011;9745;50.828;4.378;2023-03-01T06:30:02;13.63;;;8.60;;
19221;SDS011;9745;50.828;4.378;2023-03-01T06:32:28;14.03;;;7.87;;
19221;SDS011;9745;50.828;4.378;2023-03-01T06:34:55;13.87;;;8.03;;
19221;SDS011;9745;50.828;4.378;2023-03-01T06:37:21;13.10;;;8.50;;
19221;SDS011;9745;50.828;4.378;2023-03-01T06:39:47;11.90;;;7.23;;
19221;SDS011;9745;50.828;4.378;2023-03-01T06:42:13;15.97;;;8.13;;
19221;SDS011;9745;50.828;4.378;2023-03-01T06:44:38;18.57;;;7.60;;
19221;SDS011;9745;50.828;4.378;2023-03-01T06:47:04;11.27;;;7.90;;
19221;SDS011;9745;50.828;4.378;2023-03-01T06:49:30;12.97;;;8.40;;
19221;SDS011;9745;50.828;4.378;2023-03-01T06:51:56;11.10;;;7.73;;
19221;SDS011;9745;50.828;4.378;2023-03-01T06:54:22;18.03;;;8.30;;
19221;SDS011;9745;50.828;4.378;2023-03-01T06:56:49;13.77;;;8.00;;
19221;SDS011;9745;50.828;4.378;2023-03-01T06:59:15;13.03;;;8.77;;
19221;SDS011;9745;50.828;4.378;2023-03-01T07:01:41;14.33;;;8.13;;
19221;SDS011;9745;50.828;4.378;2023-03-01T07:04:08;11.60;;;8.40;;
19221;SDS011;9745;50.828;4.378;2023-03-01T07:06:34;12.03;;;8.20;;
19221;SDS011;9745;50.828;4.378;2023-03-01T07:09:00;13.20;;;8.03;;
19221;SDS011;9745;50.828;4.378;2023-03-01T07:11:26;14.70;;;8.13;;
19221;SDS011;9745;50.828;4.378;2023-03-01T07:13:52;12.20;;;8.17;;
19221;SDS011;9745;50.828;4.378;2023-03-01T07:16:18;17.57;;;8.53;;
19221;SDS011;9745;50.828;4.378;2023-03-01T07:18:45;16.70;;;8.73;;
19221;SDS011;9745;50.828;4.378;2023-03-01T07:21:12;13.87;;;9.00;;
19221;SDS011;9745;50.828;4.378;2023-03-01T07:23:38;13.77;;;8.10;;
19221;SDS011;9745;50.828;4.378;2023-03-01T07:26:04;14.37;;;8.80;;
19221;SDS011;9745;50.828;4.378;2023-03-01T07:28:30;19.03;;;8.63;;
19221;SDS011;9745;50.828;4.378;2023-03-01T07:31:01;13.37;;;7.80;;
19221;SDS011;9745;50.828;4.378;2023-03-01T07:33:27;13.63;;;8.63;;
19221;SDS011;9745;50.828;4.378;2023-03-01T07:36:00;14.53;;;7.50;;
19221;SDS011;9745;50.828;4.378;2023-03-01T07:38:27;11.97;;;8.20;;
19221;SDS011;9745;50.828;4.378;2023-03-01T07:40:53;14.30;;;8.83;;
19221;SDS011;9745;50.828;4.378;2023-03-01T07:43:23;24.67;;;9.20;;
19221;SDS011;9745;50.828;4.378;2023-03-01T07:45:49;15.43;;;8.17;;
19221;SDS011;9745;50.828;4.378;2023-03-01T07:48:15;13.23;;;7.60;;
19221;SDS011;9745;50.828;4.378;2023-03-01T07:50:41;13.30;;;8.13;;
19221;SDS011;9745;50.828;4.378;2023-03-01T07:53:07;13.73;;;8.27;;
19221;SDS011;9745;50.828;4.378;2023-03-01T07:55:33;12.77;;;8.40;;
19221;SDS011;9745;50.828;4.378;2023-03-01T07:57:59;17.50;;;8.30;;
19221;SDS011;9745;50.828;4.378;2023-03-01T08:00:25;13.57;;;8.17;;
19221;SDS011;9745;50.828;4.378;2023-03-01T08:02:51;14.43;;;8.40;;
19221;SDS011;9745;50.828;4.378;2023-03-01T08:05:17;11.63;;;7.50;;
19221;SDS011;9745;50.828;4.378;2023-03-01T08:07:43;14.93;;;8.70;;
19221;SDS011;9745;50.828;4.378;2023-03-01T08:10:09;17.47;;;8.87;;
19221;SDS011;9745;50.828;4.378;2023-03-01T08:12:36;9.93;;;7.33;;
19221;SDS011;9745;50.828;4.378;2023-03-01T08:15:02;15.87;;;9.53;;
19221;SDS011;9745;50.828;4.378;2023-03-01T08:17:28;14.40;;;8.30;;
19221;SDS011;9745;50.828;4.378;2023-03-01T08:19:54;15.23;;;8.03;;
19221;SDS011;9745;50.828;4.378;2023-03-01T08:22:20;12.50;;;8.20;;
19221;SDS011;9745;50.828;4.378;2023-03-01T08:24:46;12.87;;;8.67;;
19221;SDS011;9745;50.828;4.378;2023-03-01T08:27:12;15.13;;;8.83;;
19221;SDS011;9745;50.828;4.378;2023-03-01T08:29:38;14.43;;;8.20;;
19221;SDS011;9745;50.828;4.378;2023-03-01T08:32:04;11.60;;;8.17;;
19221;SDS011;9745;50.828;4.378;2023-03-01T08:34:30;13.53;;;8.40;;
19221;SDS011;9745;50.828;4.378;2023-03-01T08:36:56;15.20;;;8.33;;
19221;SDS011;9745;50.828;4.378;2023-03-01T08:39:23;11.43;;;8.30;;
19221;SDS011;9745;50.828;4.378;2023-03-01T08:41:49;14.33;;;7.47;;
19221;SDS011;9745;50.828;4.378;2023-03-01T08:44:15;15.67;;;8.63;;
19221;SDS011;9745;50.828;4.378;2023-03-01T08:46:46;13.60;;;8.50;;
19221;SDS011;9745;50.828;4.378;2023-03-01T08:49:13;13.13;;;8.50;;
19221;SDS011;9745;50.828;4.378;2023-03-01T08:51:39;17.07;;;8.77;;
19221;SDS011;9745;50.828;4.378;2023-03-01T08:54:07;12.53;;;8.20;;
19221;SDS011;9745;50.828;4.378;2023-03-01T08:56:35;16.20;;;9.03;;
19221;SDS011;9745;50.828;4.378;2023-03-01T08:59:01;13.63;;;8.27;;
19221;SDS011;9745;50.828;4.378;2023-03-01T09:01:28;17.07;;;8.83;;
19221;SDS011;9745;50.828;4.378;2023-03-01T09:03:54;22.97;;;8.63;;
19221;SDS011;9745;50.828;4.378;2023-03-01T09:06:20;13.07;;;8.77;;
19221;SDS011;9745;50.828;4.378;2023-03-01T09:08:47;14.03;;;9.43;;
19221;SDS011;9745;50.828;4.378;2023-03-01T09:11:14;14.43;;;9.10;;
19221;SDS011;9745;50.828;4.378;2023-03-01T09:13:41;13.03;;;8.93;;
19221;SDS011;9745;50.828;4.378;2023-03-01T09:16:08;12.83;;;8.67;;
19221;SDS011;9745;50.828;4.378;2023-03-01T09:18:34;14.53;;;8.80;;
19221;SDS011;9745;50.828;4.378;2023-03-01T09:21:04;11.83;;;8.53;;
19221;SDS011;9745;50.828;4.378;2023-03-01T09:23:32;13.17;;;8.90;;
19221;SDS011;9745;50.828;4.378;2023-03-01T09:25:59;18.20;;;9.43;;
19221;SDS011;9745;50.828;4.378;2023-03-01T09:28:25;15.30;;;8.67;;
19221;SDS011;9745;50.828;4.378;2023-03-01T09:30:50;12.20;;;8.43;;
19221;SDS011;9745;50.828;4.378;2023-03-01T09:33:16;18.13;;;9.37;;
19221;SDS011;9745;50.828;4.378;2023-03-01T09:35:42;16.27;;;9.00;;
19221;SDS011;9745;50.828;4.378;2023-03-01T09:38:12;17.90;;;8.73;;
19221;SDS011;9745;50.828;4.378;2023-03-01T09:40:42;14.13;;;8.63;;
19221;SDS011;9745;50.828;4.378;2023-03-01T09:43:23;20.30;;;9.13;;
19221;SDS011;9745;50.828;4.378;2023-03-01T09:45:50;17.27;;;9.57;;
19221;SDS011;9745;50.828;4.378;2023-03-01T09:48:20;19.67;;;10.23;;
19221;SDS011;9745;50.828;4.378;2023-03-01T09:50:48;16.20;;;9.77;;
19221;SDS011;9745;50.828;4.378;2023-03-01T09:53:18;12.80;;;9.03;;
19221;SDS011;9745;50.828;4.378;2023-03-01T10:01:27;18.00;;;9.33;;
19221;SDS011;9745;50.828;4.378;2023-03-01T10:04:04;14.60;;;9.10;;
19221;SDS011;9745;50.828;4.378;2023-03-01T10:06:32;17.20;;;9.87;;
19221;SDS011;9745;50.828;4.378;2023-03-01T10:09:13;20.97;;;9.80;;
19221;SDS011;9745;50.828;4.378;2023-03-01T10:11:41;16.40;;;9.87;;
19221;SDS011;9745;50.828;4.378;2023-03-01T10:16:50;18.17;;;10.07;;
19221;SDS011;9745;50.828;4.378;2023-03-01T10:19:23;17.30;;;9.60;;
19221;SDS011;9745;50.828;4.378;2023-03-01T10:21:50;17.87;;;9.87;;
19221;SDS011;9745;50.828;4.378;2023-03-01T10:24:18;15.40;;;10.07;;
19221;SDS011;9745;50.828;4.378;2023-03-01T10:29:18;16.03;;;9.37;;
19221;SDS011;9745;50.828;4.378;2023-03-01T10:31:51;14.17;;;9.03;;
19221;SDS011;9745;50.828;4.378;2023-03-01T10:34:28;14.93;;;9.60;;
19221;SDS011;9745;50.828;4.378;2023-03-01T10:37:04;16.30;;;9.43;;
19221;SDS011;9745;50.828;4.378;2023-03-01T10:39:34;15.10;;;8.80;;
19221;SDS011;9745;50.828;4.378;2023-03-01T10:42:04;14.73;;;9.03;;
19221;SDS011;9745;50.828;4.378;2023-03-01T10:44:37;16.07;;;8.47;;
19221;SDS011;9745;50.828;4.378;2023-03-01T10:47:04;14.03;;;9.40;;
19221;SDS011;9745;50.828;4.378;2023-03-01T10:49:30;14.13;;;9.27;;
19221;SDS011;9745;50.828;4.378;2023-03-01T10:51:56;14.70;;;9.33;;
19221;SDS011;9745;50.828;4.378;2023-03-01T10:54:36;13.97;;;9.27;;
19221;SDS011;9745;50.828;4.378;2023-03-01T10:57:05;14.43;;;8.50;;
19221;SDS011;9745;50.828;4.378;2023-03-01T10:59:32;14.97;;;8.47;;
19221;SDS011;9745;50.828;4.378;2023-03-01T11:04:42;17.60;;;8.53;;
19221;SDS011;9745;50.828;4.378;2023-03-01T11:07:21;14.23;;;8.83;;
19221;SDS011;9745;50.828;4.378;2023-03-01T11:09:47;13.80;;;7.43;;
19221;SDS011;9745;50.828;4.378;2023-03-01T11:12:14;14.83;;;8.60;;
19221;SDS011;9745;50.828;4.378;2023-03-01T11:14:48;13.63;;;8.23;;
19221;SDS011;9745;50.828;4.378;2023-03-01T11:20:01;11.73;;;8.07;;
19221;SDS011;9745;50.828;4.378;2023-03-01T11:22:29;12.07;;;8.30;;
19221;SDS011;9745;50.828;4.378;2023-03-01T11:24:56;12.23;;;8.00;;
19221;SDS011;9745;50.828;4.378;2023-03-01T11:27:28;11.77;;;7.40;;
19221;SDS011;9745;50.828;4.378;2023-03-01T11:29:59;16.70;;;8.73;;
19221;SDS011;9745;50.828;4.378;2023-03-01T11:32:26;11.83;;;8.30;;
19221;SDS011;9745;50.828;4.378;2023-03-01T11:34:55;16.00;;;8.30;;
19221;SDS011;9745;50.828;4.378;2023-03-01T11:37:33;13.37;;;7.87;;
19221;SDS011;9745;50.828;4.378;2023-03-01T11:40:03;11.60;;;7.93;;
19221;SDS011;9745;50.828;4.378;2023-03-01T11:44:59;14.77;;;7.53;;
19221;SDS011;9745;50.828;4.378;2023-03-01T11:50:00;11.30;;;7.87;;
19221;SDS011;9745;50.828;4.378;2023-03-01T11:57:38;13.83;;;8.07;;
19221;SDS011;9745;50.828;4.378;2023-03-01T12:00:14;11.17;;;8.00;;
19221;SDS011;9745;50.828;4.378;2023-03-01T12:07:50;16.33;;;8.30;;
19221;SDS011;9745;50.828;4.378;2023-03-01T12:21:05;14.77;;;7.80;;
19221;SDS011;9745;50.828;4.378;2023-03-01T12:26:14;10.23;;;6.97;;
19221;SDS011;9745;50.828;4.378;2023-03-01T12:49:28;15.77;;;8.87;;
19221;SDS011;9745;50.828;4.378;2023-03-01T12:52:16;11.80;;;7.27;;
19221;SDS011;9745;50.828;4.378;2023-03-01T12:54:44;10.80;;;7.13;;
19221;SDS011;9745;50.828;4.378;2023-03-01T12:57:17;13.13;;;6.90;;
19221;SDS011;9745;50.828;4.378;2023-03-01T12:59:50;11.50;;;6.63;;
19221;SDS011;9745;50.828;4.378;2023-03-01T13:02:29;13.03;;;6.80;;
19221;SDS011;9745;50.828;4.378;2023-03-01T13:07:37;16.73;;;8.47;;
19221;SDS011;9745;50.828;4.378;2023-03-01T13:17:49;13.57;;;7.60;;
19221;SDS011;9745;50.828;4.378;2023-03-01T13:20:16;13.00;;;7.70;;
19221;SDS011;9745;50.828;4.378;2023-03-01T13:22:43;14.77;;;7.60;;
19221;SDS011;9745;50.828;4.378;2023-03-01T13:27:39;11.93;;;7.07;;
19221;SDS011;9745;50.828;4.378;2023-03-01T13:30:12;10.60;;;7.33;;
19221;SDS011;9745;50.828;4.378;2023-03-01T13:32:51;9.00;;;7.20;;
19221;SDS011;9745;50.828;4.378;2023-03-01T13:37:45;11.13;;;6.90;;
19221;SDS011;9745;50.828;4.378;2023-03-01T13:42:48;11.10;;;7.73;;
19221;SDS011;9745;50.828;4.378;2023-03-01T13:47:55;11.17;;;6.90;;
19221;SDS011;9745;50.828;4.378;2023-03-01T13:50:24;19.83;;;11.77;;
19221;SDS011;9745;50.828;4.378;2023-03-01T13:52:55;16.07;;;7.20;;
19221;SDS011;9745;50.828;4.378;2023-03-01T13:57:57;14.17;;;7.00;;
19221;SDS011;9745;50.828;4.378;2023-03-01T14:00:29;12.73;;;7.57;;
19221;SDS011;9745;50.828;4.378;2023-03-01T14:03:02;14.27;;;8.27;;
19221;SDS011;9745;50.828;4.378;2023-03-01T14:05:29;13.70;;;7.77;;
19221;SDS011;9745;50.828;4.378;2023-03-01T14:07:55;13.53;;;7.47;;
19221;SDS011;9745;50.828;4.378;2023-03-01T14:10:21;11.90;;;7.13;;
19221;SDS011;9745;50.828;4.378;2023-03-01T14:17:41;11.60;;;7.33;;
19221;SDS011;9745;50.828;4.378;2023-03-01T14:20:11;13.03;;;7.73;;
19221;SDS011;9745;50.828;4.378;2023-03-01T14:22:38;11.23;;;7.00;;
19221;SDS011;9745;50.828;4.378;2023-03-01T14:25:16;10.27;;;6.87;;
19221;SDS011;9745;50.828;4.378;2023-03-01T14:27:43;11.43;;;6.80;;
19221;SDS011;9745;50.828;4.378;2023-03-01T14:32:37;13.37;;;7.33;;
19221;SDS011;9745;50.828;4.378;2023-03-01T14:35:18;13.80;;;7.67;;
19221;SDS011;9745;50.828;4.378;2023-03-01T14:37:44;10.57;;;7.30;;
19221;SDS011;9745;50.828;4.378;2023-03-01T14:40:21;11.70;;;7.40;;
19221;SDS011;9745;50.828;4.378;2023-03-01T14:42:48;13.73;;;7.63;;
19221;SDS011;9745;50.828;4.378;2023-03-01T14:45:14;13.87;;;7.67;;
19221;SDS011;9745;50.828;4.378;2023-03-01T14:47:43;11.17;;;7.00;;
19221;SDS011;9745;50.828;4.378;2023-03-01T14:50:24;11.53;;;7.13;;
19221;SDS011;9745;50.828;4.378;2023-03-01T14:52:51;10.63;;;7.70;;
19221;SDS011;9745;50.828;4.378;2023-03-01T14:55:24;12.77;;;7.53;;
19221;SDS011;9745;50.828;4.378;2023-03-01T14:57:51;12.13;;;7.83;;
19221;SDS011;9745;50.828;4.378;2023-03-01T15:02:43;12.67;;;7.80;;
19221;SDS011;9745;50.828;4.378;2023-03-01T15:05:13;14.20;;;7.30;;
19221;SDS011;9745;50.828;4.378;2023-03-01T15:07:40;12.77;;;7.07;;
19221;SDS011;9745;50.828;4.378;2023-03-01T15:10:11;18.00;;;7.60;;
19221;SDS011;9745;50.828;4.378;2023-03-01T15:12:40;11.63;;;7.20;;
19221;SDS011;9745;50.828;4.378;2023-03-01T15:15:48;12.93;;;7.87;;
19221;SDS011;9745;50.828;4.378;2023-03-01T15:17:56;18.70;;;8.20;;
19221;SDS011;9745;50.828;4.378;2023-03-01T15:20:24;19.27;;;7.47;;
19221;SDS011;9745;50.828;4.378;2023-03-01T15:22:52;20.97;;;9.97;;
19221;SDS011;9745;50.828;4.378;2023-03-01T15:25:19;12.20;;;7.73;;
19221;SDS011;9745;50.828;4.378;2023-03-01T15:27:46;17.30;;;7.90;;
19221;SDS011;9745;50.828;4.378;2023-03-01T15:30:16;13.00;;;8.17;;
19221;SDS011;9745;50.828;4.378;2023-03-01T15:32:43;14.67;;;7.93;;
19221;SDS011;9745;50.828;4.378;2023-03-01T15:37:54;12.33;;;7.90;;
19221;SDS011;9745;50.828;4.378;2023-03-01T15:42:46;13.37;;;8.10;;
19221;SDS011;9745;50.828;4.378;2023-03-01T15:47:49;10.97;;;7.80;;
19221;SDS011;9745;50.828;4.378;2023-03-01T15:50:26;14.00;;;8.90;;
19221;SDS011;9745;50.828;4.378;2023-03-01T15:52:53;12.80;;;7.77;;
19221;SDS011;9745;50.828;4.378;2023-03-01T15:55:25;13.43;;;7.63;;
19221;SDS011;9745;50.828;4.378;2023-03-01T16:00:27;13.23;;;7.13;;
19221;SDS011;9745;50.828;4.378;2023-03-01T16:02:53;12.03;;;7.17;;
19221;SDS011;9745;50.828;4.378;2023-03-01T16:05:21;13.60;;;7.87;;
19221;SDS011;9745;50.828;4.378;2023-03-01T16:07:48;11.27;;;7.17;;
19221;SDS011;9745;50.828;4.378;2023-03-01T16:10:14;11.00;;;7.63;;
19221;SDS011;9745;50.828;4.378;2023-03-01T16:12:40;10.03;;;7.37;;
19221;SDS011;9745;50.828;4.378;2023-03-01T16:15:39;12.53;;;7.70;;
19221;SDS011;9745;50.828;4.378;2023-03-01T16:18:02;13.13;;;7.40;;
19221;SDS011;9745;50.828;4.378;2023-03-01T16:20:30;10.57;;;6.87;;
19221;SDS011;9745;50.828;4.378;2023-03-01T16:23:03;8.43;;;5.90;;
19221;SDS011;9745;50.828;4.378;2023-03-01T16:25:30;10.43;;;6.20;;
19221;SDS011;9745;50.828;4.378;2023-03-01T16:27:57;12.07;;;6.30;;
19221;SDS011;9745;50.828;4.378;2023-03-01T16:30:25;9.77;;;5.50;;
19221;SDS011;9745;50.828;4.378;2023-03-01T16:32:51;11.80;;;7.33;;
19221;SDS011;9745;50.828;4.378;2023-03-01T16:35:18;11.53;;;6.77;;
19221;SDS011;9745;50.828;4.378;2023-03-01T16:37:45;10.47;;;6.63;;
19221;SDS011;9745;50.828;4.378;2023-03-01T16:40:33;10.77;;;7.20;;
19221;SDS011;9745;50.828;4.378;2023-03-01T16:42:58;10.10;;;6.80;;
19221;SDS011;9745;50.828;4.378;2023-03-01T16:45:26;13.13;;;6.90;;
19221;SDS011;9745;50.828;4.378;2023-03-01T16:47:52;12.80;;;7.07;;
19221;SDS011;9745;50.828;4.378;2023-03-01T16:50:18;9.27;;;6.23;;